sensor_id;sensor_type;location;lat;lon;timestamp;P1;durP1;ratioP1;P2;durP2;ratioP2
61702;SDS011;47622;47.726;3.298;2023-06-14T00:01:45;9.30;;;4.63;;
61702;SDS011;47622;47.726;3.298;2023-06-14T00:04:11;6.93;;;4.97;;
61702;SDS011;47622;47.726;3.298;2023-06-14T00:06:38;5.93;;;3.90;;
61702;SDS011;47622;47.726;3.298;2023-06-14T00:09:03;5.45;;;4.35;;
61702;SDS011;47622;47.726;3.298;2023-06-14T00:11:30;6.55;;;4.32;;
61702;SDS011;47622;47.726;3.298;2023-06-14T00:13:56;5.35;;;4.28;;
61702;SDS011;47622;47.726;3.298;2023-06-14T00:16:22;8.07;;;4.65;;
61702;SDS011;47622;47.726;3.298;2023-06-14T00:18:49;6.30;;;4.63;;
61702;SDS011;47622;47.726;3.298;2023-06-14T00:21:16;5.32;;;4.40;;
61702;SDS011;47622;47.726;3.298;2023-06-14T00:23:42;6.22;;;4.47;;
61702;SDS011;47622;47.726;3.298;2023-06-14T00:26:08;8.10;;;4.40;;
61702;SDS011;47622;47.726;3.298;2023-06-14T00:28:33;6.53;;;4.90;;
61702;SDS011;47622;47.726;3.298;2023-06-14T00:30:59;9.15;;;5.00;;
61702;SDS011;47622;47.726;3.298;2023-06-14T00:33:25;6.20;;;4.38;;
61702;SDS011;47622;47.726;3.298;2023-06-14T00:35:51;8.60;;;4.90;;
61702;SDS011;47622;47.726;3.298;2023-06-14T00:38:19;7.00;;;5.22;;
61702;SDS011;47622;47.726;3.298;2023-06-14T00:40:46;6.50;;;4.45;;
61702;SDS011;47622;47.726;3.298;2023-06-14T00:43:11;5.00;;;4.07;;
61702;SDS011;47622;47.726;3.298;2023-06-14T00:45:37;5.90;;;4.47;;
61702;SDS011;47622;47.726;3.298;2023-06-14T00:48:03;6.47;;;4.38;;
61702;SDS011;47622;47.726;3.298;2023-06-14T00:50:31;5.05;;;4.18;;
61702;SDS011;47622;47.726;3.298;2023-06-14T00:52:58;4.80;;;4.30;;
61702;SDS011;47622;47.726;3.298;2023-06-14T00:55:26;9.45;;;5.07;;
61702;SDS011;47622;47.726;3.298;2023-06-14T00:57:52;4.50;;;3.92;;
61702;SDS011;47622;47.726;3.298;2023-06-14T01:00:19;6.78;;;4.55;;
61702;SDS011;47622;47.726;3.298;2023-06-14T01:02:44;6.28;;;4.80;;
61702;SDS011;47622;47.726;3.298;2023-06-14T01:05:10;6.20;;;4.40;;
61702;SDS011;47622;47.726;3.298;2023-06-14T01:10:31;6.55;;;4.10;;
61702;SDS011;47622;47.726;3.298;2023-06-14T01:13:38;5.03;;;4.50;;
61702;SDS011;47622;47.726;3.298;2023-06-14T01:16:06;5.35;;;4.25;;
61702;SDS011;47622;47.726;3.298;2023-06-14T01:18:33;7.22;;;5.10;;
61702;SDS011;47622;47.726;3.298;2023-06-14T01:21:00;8.63;;;4.80;;
61702;SDS011;47622;47.726;3.298;2023-06-14T01:23:30;7.47;;;4.38;;
61702;SDS011;47622;47.726;3.298;2023-06-14T01:25:58;7.35;;;4.82;;
61702;SDS011;47622;47.726;3.298;2023-06-14T01:28:25;5.80;;;4.68;;
61702;SDS011;47622;47.726;3.298;2023-06-14T01:30:59;6.22;;;4.90;;
61702;SDS011;47622;47.726;3.298;2023-06-14T01:33:29;8.48;;;4.53;;
61702;SDS011;47622;47.726;3.298;2023-06-14T01:35:55;10.45;;;4.53;;
61702;SDS011;47622;47.726;3.298;2023-06-14T01:38:23;6.85;;;4.88;;
61702;SDS011;47622;47.726;3.298;2023-06-14T01:40:50;5.90;;;4.72;;
61702;SDS011;47622;47.726;3.298;2023-06-14T01:43:18;5.47;;;4.50;;
61702;SDS011;47622;47.726;3.298;2023-06-14T01:45:45;6.72;;;4.57;;
61702;SDS011;47622;47.726;3.298;2023-06-14T01:48:12;7.18;;;4.80;;
61702;SDS011;47622;47.726;3.298;2023-06-14T01:50:38;7.35;;;4.72;;
61702;SDS011;47622;47.726;3.298;2023-06-14T01:53:07;9.60;;;4.85;;
61702;SDS011;47622;47.726;3.298;2023-06-14T01:55:33;6.03;;;4.53;;
61702;SDS011;47622;47.726;3.298;2023-06-14T01:58:02;6.40;;;4.72;;
61702;SDS011;47622;47.726;3.298;2023-06-14T02:00:28;7.30;;;4.45;;
61702;SDS011;47622;47.726;3.298;2023-06-14T02:02:54;7.13;;;4.75;;
61702;SDS011;47622;47.726;3.298;2023-06-14T02:05:20;6.88;;;4.60;;
61702;SDS011;47622;47.726;3.298;2023-06-14T02:07:46;6.07;;;5.18;;
61702;SDS011;47622;47.726;3.298;2023-06-14T02:10:12;7.72;;;4.75;;
61702;SDS011;47622;47.726;3.298;2023-06-14T02:12:39;7.20;;;4.65;;
61702;SDS011;47622;47.726;3.298;2023-06-14T02:15:05;10.45;;;5.18;;
61702;SDS011;47622;47.726;3.298;2023-06-14T02:17:32;6.93;;;4.63;;
61702;SDS011;47622;47.726;3.298;2023-06-14T02:19:58;6.30;;;4.65;;
61702;SDS011;47622;47.726;3.298;2023-06-14T02:22:23;6.25;;;4.65;;
61702;SDS011;47622;47.726;3.298;2023-06-14T02:24:49;6.07;;;4.60;;
61702;SDS011;47622;47.726;3.298;2023-06-14T02:27:15;6.30;;;5.18;;
61702;SDS011;47622;47.726;3.298;2023-06-14T02:29:40;7.45;;;5.05;;
61702;SDS011;47622;47.726;3.298;2023-06-14T02:32:06;7.07;;;4.65;;
61702;SDS011;47622;47.726;3.298;2023-06-14T02:34:32;6.55;;;4.90;;
61702;SDS011;47622;47.726;3.298;2023-06-14T02:37:01;6.72;;;5.20;;
61702;SDS011;47622;47.726;3.298;2023-06-14T02:39:30;8.32;;;4.70;;
61702;SDS011;47622;47.726;3.298;2023-06-14T02:41:55;6.35;;;4.97;;
61702;SDS011;47622;47.726;3.298;2023-06-14T02:44:25;7.80;;;4.85;;
61702;SDS011;47622;47.726;3.298;2023-06-14T02:46:53;7.05;;;5.13;;
61702;SDS011;47622;47.726;3.298;2023-06-14T02:49:20;6.72;;;5.35;;
61702;SDS011;47622;47.726;3.298;2023-06-14T02:51:46;6.43;;;4.72;;
61702;SDS011;47622;47.726;3.298;2023-06-14T02:54:12;6.35;;;4.55;;
61702;SDS011;47622;47.726;3.298;2023-06-14T02:56:38;6.18;;;4.90;;
61702;SDS011;47622;47.726;3.298;2023-06-14T02:59:04;9.50;;;4.38;;
61702;SDS011;47622;47.726;3.298;2023-06-14T03:01:29;6.30;;;4.82;;
61702;SDS011;47622;47.726;3.298;2023-06-14T03:03:58;7.32;;;4.72;;
61702;SDS011;47622;47.726;3.298;2023-06-14T03:06:27;6.57;;;5.00;;
61702;SDS011;47622;47.726;3.298;2023-06-14T03:08:55;6.30;;;4.45;;
61702;SDS011;47622;47.726;3.298;2023-06-14T03:11:25;6.95;;;5.20;;
61702;SDS011;47622;47.726;3.298;2023-06-14T03:13:51;5.50;;;4.65;;
61702;SDS011;47622;47.726;3.298;2023-06-14T03:16:18;7.60;;;4.97;;
61702;SDS011;47622;47.726;3.298;2023-06-14T03:18:49;7.22;;;4.70;;
61702;SDS011;47622;47.726;3.298;2023-06-14T03:21:16;5.78;;;4.90;;
61702;SDS011;47622;47.726;3.298;2023-06-14T03:23:42;7.70;;;4.72;;
61702;SDS011;47622;47.726;3.298;2023-06-14T03:26:09;9.27;;;4.68;;
61702;SDS011;47622;47.726;3.298;2023-06-14T03:28:38;5.78;;;4.70;;
61702;SDS011;47622;47.726;3.298;2023-06-14T03:31:03;5.82;;;4.95;;
61702;SDS011;47622;47.726;3.298;2023-06-14T03:33:31;6.32;;;4.82;;
61702;SDS011;47622;47.726;3.298;2023-06-14T03:35:57;6.97;;;5.25;;
61702;SDS011;47622;47.726;3.298;2023-06-14T03:38:23;7.60;;;5.38;;
61702;SDS011;47622;47.726;3.298;2023-06-14T03:40:48;6.57;;;4.95;;
61702;SDS011;47622;47.726;3.298;2023-06-14T03:43:14;8.68;;;5.05;;
61702;SDS011;47622;47.726;3.298;2023-06-14T03:45:40;7.63;;;4.60;;
61702;SDS011;47622;47.726;3.298;2023-06-14T03:48:06;5.53;;;4.72;;
61702;SDS011;47622;47.726;3.298;2023-06-14T03:50:33;8.82;;;5.80;;
61702;SDS011;47622;47.726;3.298;2023-06-14T03:52:59;8.85;;;4.97;;
61702;SDS011;47622;47.726;3.298;2023-06-14T03:55:26;8.00;;;4.97;;
61702;SDS011;47622;47.726;3.298;2023-06-14T03:57:52;9.40;;;5.18;;
61702;SDS011;47622;47.726;3.298;2023-06-14T04:00:18;7.72;;;5.15;;
61702;SDS011;47622;47.726;3.298;2023-06-14T04:02:44;7.00;;;5.43;;
61702;SDS011;47622;47.726;3.298;2023-06-14T04:05:11;8.02;;;5.50;;
61702;SDS011;47622;47.726;3.298;2023-06-14T04:07:36;7.18;;;5.05;;
61702;SDS011;47622;47.726;3.298;2023-06-14T04:10:06;5.72;;;4.80;;
61702;SDS011;47622;47.726;3.298;2023-06-14T04:12:33;7.80;;;4.95;;
61702;SDS011;47622;47.726;3.298;2023-06-14T04:14:59;7.07;;;4.75;;
61702;SDS011;47622;47.726;3.298;2023-06-14T04:17:25;8.50;;;6.18;;
61702;SDS011;47622;47.726;3.298;2023-06-14T04:19:51;6.97;;;5.18;;
61702;SDS011;47622;47.726;3.298;2023-06-14T04:22:17;5.63;;;4.78;;
61702;SDS011;47622;47.726;3.298;2023-06-14T04:24:43;8.15;;;5.10;;
61702;SDS011;47622;47.726;3.298;2023-06-14T04:27:10;7.30;;;5.03;;
61702;SDS011;47622;47.726;3.298;2023-06-14T04:29:35;6.10;;;5.03;;
61702;SDS011;47622;47.726;3.298;2023-06-14T04:32:01;10.10;;;5.40;;
61702;SDS011;47622;47.726;3.298;2023-06-14T04:34:27;9.77;;;5.03;;
61702;SDS011;47622;47.726;3.298;2023-06-14T04:36:57;6.82;;;5.00;;
61702;SDS011;47622;47.726;3.298;2023-06-14T04:39:24;6.88;;;5.57;;
61702;SDS011;47622;47.726;3.298;2023-06-14T04:41:51;7.40;;;5.60;;
61702;SDS011;47622;47.726;3.298;2023-06-14T04:44:21;7.28;;;5.25;;
61702;SDS011;47622;47.726;3.298;2023-06-14T04:46:55;6.53;;;5.13;;
61702;SDS011;47622;47.726;3.298;2023-06-14T04:49:21;6.43;;;5.05;;
61702;SDS011;47622;47.726;3.298;2023-06-14T04:51:48;7.10;;;4.82;;
61702;SDS011;47622;47.726;3.298;2023-06-14T04:54:22;10.05;;;5.20;;
61702;SDS011;47622;47.726;3.298;2023-06-14T04:56:49;6.65;;;5.13;;
61702;SDS011;47622;47.726;3.298;2023-06-14T04:59:15;5.85;;;4.93;;
61702;SDS011;47622;47.726;3.298;2023-06-14T05:01:42;5.55;;;4.95;;
61702;SDS011;47622;47.726;3.298;2023-06-14T05:04:14;8.73;;;4.90;;
61702;SDS011;47622;47.726;3.298;2023-06-14T05:06:41;5.78;;;4.95;;
61702;SDS011;47622;47.726;3.298;2023-06-14T05:09:15;6.05;;;4.72;;
61702;SDS011;47622;47.726;3.298;2023-06-14T05:11:42;5.85;;;5.20;;
61702;SDS011;47622;47.726;3.298;2023-06-14T05:14:09;7.57;;;5.25;;
61702;SDS011;47622;47.726;3.298;2023-06-14T05:16:35;6.65;;;5.05;;
61702;SDS011;47622;47.726;3.298;2023-06-14T05:19:02;7.10;;;5.10;;
61702;SDS011;47622;47.726;3.298;2023-06-14T05:21:29;6.13;;;5.32;;
61702;SDS011;47622;47.726;3.298;2023-06-14T05:23:57;5.80;;;5.18;;
61702;SDS011;47622;47.726;3.298;2023-06-14T05:26:22;5.20;;;4.55;;
61702;SDS011;47622;47.726;3.298;2023-06-14T05:28:56;6.28;;;4.95;;
61702;SDS011;47622;47.726;3.298;2023-06-14T05:31:23;7.15;;;5.28;;
61702;SDS011;47622;47.726;3.298;2023-06-14T05:33:51;7.28;;;4.97;;
61702;SDS011;47622;47.726;3.298;2023-06-14T05:36:17;6.63;;;5.15;;
61702;SDS011;47622;47.726;3.298;2023-06-14T05:38:43;8.52;;;5.30;;
61702;SDS011;47622;47.726;3.298;2023-06-14T05:41:08;6.28;;;5.40;;
61702;SDS011;47622;47.726;3.298;2023-06-14T05:43:34;6.50;;;5.30;;
61702;SDS011;47622;47.726;3.298;2023-06-14T05:45:59;5.72;;;4.80;;
61702;SDS011;47622;47.726;3.298;2023-06-14T05:48:25;8.50;;;5.28;;
61702;SDS011;47622;47.726;3.298;2023-06-14T05:50:50;8.05;;;4.65;;
61702;SDS011;47622;47.726;3.298;2023-06-14T05:53:16;7.78;;;5.00;;
61702;SDS011;47622;47.726;3.298;2023-06-14T05:55:42;6.05;;;4.72;;
61702;SDS011;47622;47.726;3.298;2023-06-14T05:58:07;5.18;;;4.60;;
61702;SDS011;47622;47.726;3.298;2023-06-14T06:00:33;6.30;;;4.60;;
61702;SDS011;47622;47.726;3.298;2023-06-14T06:02:58;6.28;;;4.75;;
61702;SDS011;47622;47.726;3.298;2023-06-14T06:05:25;5.72;;;4.82;;
61702;SDS011;47622;47.726;3.298;2023-06-14T06:07:51;8.55;;;4.70;;
61702;SDS011;47622;47.726;3.298;2023-06-14T06:10:17;6.45;;;5.20;;
61702;SDS011;47622;47.726;3.298;2023-06-14T06:12:42;7.43;;;5.00;;
61702;SDS011;47622;47.726;3.298;2023-06-14T06:15:08;8.13;;;4.80;;
61702;SDS011;47622;47.726;3.298;2023-06-14T06:17:37;7.28;;;4.80;;
61702;SDS011;47622;47.726;3.298;2023-06-14T06:20:03;5.47;;;4.20;;
61702;SDS011;47622;47.726;3.298;2023-06-14T06:22:31;6.22;;;5.15;;
61702;SDS011;47622;47.726;3.298;2023-06-14T06:24:56;6.82;;;5.10;;
61702;SDS011;47622;47.726;3.298;2023-06-14T06:27:22;6.82;;;4.85;;
61702;SDS011;47622;47.726;3.298;2023-06-14T06:29:48;6.18;;;4.70;;
61702;SDS011;47622;47.726;3.298;2023-06-14T06:32:14;11.90;;;4.43;;
61702;SDS011;47622;47.726;3.298;2023-06-14T06:34:41;7.45;;;4.25;;
61702;SDS011;47622;47.726;3.298;2023-06-14T06:37:06;7.55;;;4.43;;
61702;SDS011;47622;47.726;3.298;2023-06-14T06:39:32;5.25;;;4.43;;
61702;SDS011;47622;47.726;3.298;2023-06-14T06:41:58;6.97;;;3.92;;
61702;SDS011;47622;47.726;3.298;2023-06-14T06:44:23;7.90;;;4.03;;
61702;SDS011;47622;47.726;3.298;2023-06-14T06:46:49;6.25;;;4.20;;
61702;SDS011;47622;47.726;3.298;2023-06-14T06:49:15;7.57;;;3.97;;
61702;SDS011;47622;47.726;3.298;2023-06-14T06:51:41;6.13;;;3.90;;
61702;SDS011;47622;47.726;3.298;2023-06-14T06:54:10;5.97;;;4.20;;
61702;SDS011;47622;47.726;3.298;2023-06-14T06:56:36;6.10;;;3.97;;
61702;SDS011;47622;47.726;3.298;2023-06-14T06:59:04;8.23;;;4.20;;
61702;SDS011;47622;47.726;3.298;2023-06-14T07:01:29;8.27;;;4.13;;
61702;SDS011;47622;47.726;3.298;2023-06-14T07:03:55;5.57;;;3.83;;
61702;SDS011;47622;47.726;3.298;2023-06-14T07:06:22;6.90;;;4.32;;
61702;SDS011;47622;47.726;3.298;2023-06-14T07:08:52;6.93;;;4.18;;
61702;SDS011;47622;47.726;3.298;2023-06-14T07:11:17;10.15;;;4.60;;
61702;SDS011;47622;47.726;3.298;2023-06-14T07:13:43;7.70;;;4.35;;
61702;SDS011;47622;47.726;3.298;2023-06-14T07:25:52;5.53;;;3.80;;
61702;SDS011;47622;47.726;3.298;2023-06-14T07:28:18;5.75;;;3.80;;
61702;SDS011;47622;47.726;3.298;2023-06-14T07:30:44;5.15;;;3.75;;
61702;SDS011;47622;47.726;3.298;2023-06-14T07:33:10;7.45;;;3.90;;
61702;SDS011;47622;47.726;3.298;2023-06-14T07:35:37;4.57;;;3.72;;
61702;SDS011;47622;47.726;3.298;2023-06-14T07:38:02;5.25;;;3.67;;
61702;SDS011;47622;47.726;3.298;2023-06-14T07:40:29;4.10;;;3.58;;
61702;SDS011;47622;47.726;3.298;2023-06-14T07:42:55;6.05;;;3.20;;
61702;SDS011;47622;47.726;3.298;2023-06-14T07:45:21;7.13;;;3.90;;
61702;SDS011;47622;47.726;3.298;2023-06-14T07:47:46;7.90;;;3.60;;
61702;SDS011;47622;47.726;3.298;2023-06-14T07:50:12;7.53;;;3.53;;
61702;SDS011;47622;47.726;3.298;2023-06-14T07:52:38;6.72;;;3.83;;
61702;SDS011;47622;47.726;3.298;2023-06-14T07:55:04;8.75;;;4.38;;
61702;SDS011;47622;47.726;3.298;2023-06-14T07:57:30;5.45;;;3.63;;
61702;SDS011;47622;47.726;3.298;2023-06-14T07:59:56;7.35;;;3.85;;
61702;SDS011;47622;47.726;3.298;2023-06-14T08:02:21;5.10;;;3.70;;
61702;SDS011;47622;47.726;3.298;2023-06-14T08:04:47;9.55;;;3.75;;
61702;SDS011;47622;47.726;3.298;2023-06-14T08:07:13;7.60;;;3.30;;
61702;SDS011;47622;47.726;3.298;2023-06-14T08:09:39;8.20;;;3.80;;
61702;SDS011;47622;47.726;3.298;2023-06-14T08:12:05;7.65;;;3.50;;
61702;SDS011;47622;47.726;3.298;2023-06-14T08:14:35;6.38;;;3.10;;
61702;SDS011;47622;47.726;3.298;2023-06-14T08:17:01;6.68;;;3.28;;
61702;SDS011;47622;47.726;3.298;2023-06-14T08:19:28;4.47;;;3.40;;
61702;SDS011;47622;47.726;3.298;2023-06-14T08:21:53;7.18;;;3.42;;
61702;SDS011;47622;47.726;3.298;2023-06-14T08:24:23;4.45;;;3.08;;
61702;SDS011;47622;47.726;3.298;2023-06-14T08:26:54;7.57;;;3.28;;
61702;SDS011;47622;47.726;3.298;2023-06-14T08:29:22;21.17;;;3.92;;
61702;SDS011;47622;47.726;3.298;2023-06-14T08:31:47;3.72;;;2.85;;
61702;SDS011;47622;47.726;3.298;2023-06-14T08:34:13;4.72;;;3.10;;
61702;SDS011;47622;47.726;3.298;2023-06-14T08:36:39;8.75;;;3.38;;
61702;SDS011;47622;47.726;3.298;2023-06-14T08:39:04;4.85;;;3.28;;
61702;SDS011;47622;47.726;3.298;2023-06-14T08:41:30;7.43;;;3.10;;
61702;SDS011;47622;47.726;3.298;2023-06-14T08:43:56;7.53;;;3.22;;
61702;SDS011;47622;47.726;3.298;2023-06-14T08:46:22;7.07;;;3.25;;
61702;SDS011;47622;47.726;3.298;2023-06-14T08:48:52;6.60;;;3.67;;
61702;SDS011;47622;47.726;3.298;2023-06-14T08:51:22;11.43;;;3.15;;
61702;SDS011;47622;47.726;3.298;2023-06-14T08:53:52;7.18;;;3.20;;
61702;SDS011;47622;47.726;3.298;2023-06-14T08:56:24;4.00;;;3.08;;
61702;SDS011;47622;47.726;3.298;2023-06-14T08:58:51;6.75;;;3.70;;
61702;SDS011;47622;47.726;3.298;2023-06-14T09:01:17;6.07;;;3.75;;
61702;SDS011;47622;47.726;3.298;2023-06-14T09:03:44;5.93;;;3.25;;
61702;SDS011;47622;47.726;3.298;2023-06-14T09:06:11;3.90;;;3.22;;
61702;SDS011;47622;47.726;3.298;2023-06-14T09:08:45;5.32;;;3.60;;
61702;SDS011;47622;47.726;3.298;2023-06-14T09:11:15;9.00;;;3.20;;
61702;SDS011;47622;47.726;3.298;2023-06-14T09:13:44;6.35;;;3.45;;
61702;SDS011;47622;47.726;3.298;2023-06-14T09:16:11;7.90;;;3.67;;
61702;SDS011;47622;47.726;3.298;2023-06-14T09:18:37;5.68;;;3.50;;
61702;SDS011;47622;47.726;3.298;2023-06-14T09:21:09;6.40;;;3.45;;
61702;SDS011;47622;47.726;3.298;2023-06-14T09:23:37;6.10;;;3.50;;
61702;SDS011;47622;47.726;3.298;2023-06-14T09:26:19;8.57;;;3.55;;
61702;SDS011;47622;47.726;3.298;2023-06-14T09:28:48;6.03;;;3.30;;
61702;SDS011;47622;47.726;3.298;2023-06-14T09:36:13;5.10;;;3.65;;
61702;SDS011;47622;47.726;3.298;2023-06-14T09:38:42;7.03;;;3.70;;
61702;SDS011;47622;47.726;3.298;2023-06-14T09:41:07;7.93;;;3.55;;
61702;SDS011;47622;47.726;3.298;2023-06-14T09:43:33;12.60;;;3.28;;
61702;SDS011;47622;47.726;3.298;2023-06-14T09:46:02;6.60;;;3.97;;
61702;SDS011;47622;47.726;3.298;2023-06-14T09:48:29;7.85;;;3.30;;
61702;SDS011;47622;47.726;3.298;2023-06-14T09:50:55;4.00;;;2.97;;
61702;SDS011;47622;47.726;3.298;2023-06-14T09:53:23;10.00;;;3.05;;
61702;SDS011;47622;47.726;3.298;2023-06-14T09:55:50;7.97;;;3.60;;
61702;SDS011;47622;47.726;3.298;2023-06-14T09:58:18;6.53;;;3.40;;
61702;SDS011;47622;47.726;3.298;2023-06-14T10:00:46;5.85;;;3.08;;
61702;SDS011;47622;47.726;3.298;2023-06-14T10:03:18;6.10;;;3.65;;
61702;SDS011;47622;47.726;3.298;2023-06-14T10:05:53;5.57;;;3.30;;
61702;SDS011;47622;47.726;3.298;2023-06-14T10:08:23;5.05;;;3.47;;
61702;SDS011;47622;47.726;3.298;2023-06-14T10:13:18;6.65;;;3.13;;
61702;SDS011;47622;47.726;3.298;2023-06-14T10:18:42;3.83;;;3.38;;
61702;SDS011;47622;47.726;3.298;2023-06-14T10:21:28;7.10;;;2.97;;
61702;SDS011;47622;47.726;3.298;2023-06-14T10:24:18;5.13;;;3.50;;
61702;SDS011;47622;47.726;3.298;2023-06-14T10:26:51;5.38;;;3.35;;
61702;SDS011;47622;47.726;3.298;2023-06-14T10:29:18;5.35;;;3.22;;
61702;SDS011;47622;47.726;3.298;2023-06-14T10:31:48;6.72;;;3.58;;
61702;SDS011;47622;47.726;3.298;2023-06-14T10:34:21;6.13;;;3.33;;
61702;SDS011;47622;47.726;3.298;2023-06-14T10:37:00;6.88;;;3.33;;
61702;SDS011;47622;47.726;3.298;2023-06-14T10:39:30;9.48;;;3.92;;
61702;SDS011;47622;47.726;3.298;2023-06-14T10:42:01;5.03;;;3.58;;
61702;SDS011;47622;47.726;3.298;2023-06-14T10:46:56;7.10;;;3.38;;
61702;SDS011;47622;47.726;3.298;2023-06-14T10:52:10;5.00;;;3.60;;
61702;SDS011;47622;47.726;3.298;2023-06-14T10:57:24;5.45;;;3.10;;
61702;SDS011;47622;47.726;3.298;2023-06-14T10:59:50;5.30;;;3.40;;
61702;SDS011;47622;47.726;3.298;2023-06-14T11:04:48;4.88;;;3.15;;
61702;SDS011;47622;47.726;3.298;2023-06-14T11:10:36;6.10;;;3.33;;
61702;SDS011;47622;47.726;3.298;2023-06-14T11:13:03;5.07;;;3.70;;
61702;SDS011;47622;47.726;3.298;2023-06-14T11:15:33;6.63;;;3.97;;
61702;SDS011;47622;47.726;3.298;2023-06-14T11:18:00;3.95;;;3.15;;
61702;SDS011;47622;47.726;3.298;2023-06-14T11:20:35;4.28;;;3.35;;
61702;SDS011;47622;47.726;3.298;2023-06-14T11:23:02;4.13;;;3.22;;
61702;SDS011;47622;47.726;3.298;2023-06-14T11:25:28;10.15;;;3.15;;
61702;SDS011;47622;47.726;3.298;2023-06-14T11:27:55;6.03;;;3.10;;
61702;SDS011;47622;47.726;3.298;2023-06-14T11:30:21;5.30;;;3.20;;
61702;SDS011;47622;47.726;3.298;2023-06-14T11:32:47;8.55;;;3.53;;
61702;SDS011;47622;47.726;3.298;2023-06-14T11:35:15;6.22;;;3.25;;
61702;SDS011;47622;47.726;3.298;2023-06-14T11:37:42;9.85;;;3.50;;
61702;SDS011;47622;47.726;3.298;2023-06-14T11:42:36;8.60;;;3.55;;
61702;SDS011;47622;47.726;3.298;2023-06-14T11:47:33;8.07;;;3.75;;
61702;SDS011;47622;47.726;3.298;2023-06-14T11:52:28;4.82;;;3.28;;
61702;SDS011;47622;47.726;3.298;2023-06-14T11:54:54;7.07;;;3.57;;
61702;SDS011;47622;47.726;3.298;2023-06-14T11:57:20;5.47;;;3.28;;
61702;SDS011;47622;47.726;3.298;2023-06-14T11:59:46;7.47;;;3.47;;
61702;SDS011;47622;47.726;3.298;2023-06-14T12:02:15;11.18;;;3.28;;
61702;SDS011;47622;47.726;3.298;2023-06-14T12:04:47;5.82;;;3.53;;
61702;SDS011;47622;47.726;3.298;2023-06-14T12:07:14;6.95;;;3.33;;
61702;SDS011;47622;47.726;3.298;2023-06-14T12:09:43;7.00;;;3.20;;
61702;SDS011;47622;47.726;3.298;2023-06-14T12:12:35;4.72;;;3.20;;
61702;SDS011;47622;47.726;3.298;2023-06-14T12:15:03;3.65;;;3.10;;
61702;SDS011;47622;47.726;3.298;2023-06-14T12:17:34;5.07;;;3.25;;
61702;SDS011;47622;47.726;3.298;2023-06-14T12:20:10;4.07;;;3.58;;
61702;SDS011;47622;47.726;3.298;2023-06-14T12:23:03;4.30;;;3.08;;
61702;SDS011;47622;47.726;3.298;2023-06-14T12:25:33;4.22;;;3.17;;
61702;SDS011;47622;47.726;3.298;2023-06-14T12:28:07;4.95;;;3.63;;
61702;SDS011;47622;47.726;3.298;2023-06-14T12:30:35;7.32;;;3.60;;
61702;SDS011;47622;47.726;3.298;2023-06-14T12:33:02;7.50;;;3.22;;
61702;SDS011;47622;47.726;3.298;2023-06-14T12:35:28;4.32;;;3.03;;
61702;SDS011;47622;47.726;3.298;2023-06-14T12:37:54;3.75;;;3.20;;
61702;SDS011;47622;47.726;3.298;2023-06-14T12:40:19;3.92;;;3.17;;
61702;SDS011;47622;47.726;3.298;2023-06-14T12:42:45;3.88;;;3.03;;
61702;SDS011;47622;47.726;3.298;2023-06-14T12:45:14;3.38;;;3.00;;
61702;SDS011;47622;47.726;3.298;2023-06-14T12:47:41;4.32;;;3.20;;
61702;SDS011;47622;47.726;3.298;2023-06-14T12:50:07;7.35;;;3.17;;
61702;SDS011;47622;47.726;3.298;2023-06-14T12:52:33;5.65;;;3.15;;
61702;SDS011;47622;47.726;3.298;2023-06-14T12:55:02;4.05;;;2.80;;
61702;SDS011;47622;47.726;3.298;2023-06-14T12:57:29;4.50;;;2.75;;
61702;SDS011;47622;47.726;3.298;2023-06-14T12:59:54;6.10;;;2.85;;
61702;SDS011;47622;47.726;3.298;2023-06-14T13:02:20;4.45;;;3.00;;
61702;SDS011;47622;47.726;3.298;2023-06-14T13:04:48;4.80;;;2.75;;
61702;SDS011;47622;47.726;3.298;2023-06-14T13:07:15;3.20;;;2.80;;
61702;SDS011;47622;47.726;3.298;2023-06-14T13:09:42;5.60;;;2.97;;
61702;SDS011;47622;47.726;3.298;2023-06-14T13:12:09;5.72;;;3.45;;
61702;SDS011;47622;47.726;3.298;2023-06-14T13:14:36;4.70;;;3.42;;
61702;SDS011;47622;47.726;3.298;2023-06-14T13:17:02;4.25;;;2.90;;
61702;SDS011;47622;47.726;3.298;2023-06-14T13:19:28;4.00;;;2.80;;
61702;SDS011;47622;47.726;3.298;2023-06-14T13:21:53;4.68;;;3.10;;
61702;SDS011;47622;47.726;3.298;2023-06-14T13:26:45;6.10;;;3.35;;
61702;SDS011;47622;47.726;3.298;2023-06-14T13:29:11;5.03;;;2.83;;
61702;SDS011;47622;47.726;3.298;2023-06-14T13:34:02;3.30;;;3.00;;
61702;SDS011;47622;47.726;3.298;2023-06-14T13:36:28;4.10;;;3.15;;
61702;SDS011;47622;47.726;3.298;2023-06-14T13:38:55;3.55;;;3.17;;
61702;SDS011;47622;47.726;3.298;2023-06-14T13:41:20;4.80;;;3.30;;
61702;SDS011;47622;47.726;3.298;2023-06-14T13:43:46;3.47;;;2.65;;
61702;SDS011;47622;47.726;3.298;2023-06-14T13:46:12;4.13;;;2.97;;
61702;SDS011;47622;47.726;3.298;2023-06-14T13:48:37;6.93;;;3.00;;
61702;SDS011;47622;47.726;3.298;2023-06-14T13:51:03;4.80;;;3.07;;
61702;SDS011;47622;47.726;3.298;2023-06-14T13:53:30;6.10;;;3.03;;
61702;SDS011;47622;47.726;3.298;2023-06-14T13:55:55;8.90;;;3.20;;
61702;SDS011;47622;47.726;3.298;2023-06-14T13:58:21;7.60;;;3.03;;
61702;SDS011;47622;47.726;3.298;2023-06-14T14:00:48;6.00;;;2.97;;
61702;SDS011;47622;47.726;3.298;2023-06-14T14:03:14;5.20;;;3.15;;
61702;SDS011;47622;47.726;3.298;2023-06-14T14:05:40;7.95;;;3.08;;
61702;SDS011;47622;47.726;3.298;2023-06-14T14:08:06;6.75;;;3.17;;
61702;SDS011;47622;47.726;3.298;2023-06-14T14:10:32;3.20;;;2.85;;
61702;SDS011;47622;47.726;3.298;2023-06-14T14:12:59;4.40;;;3.10;;
61702;SDS011;47622;47.726;3.298;2023-06-14T14:15:25;3.92;;;2.83;;
61702;SDS011;47622;47.726;3.298;2023-06-14T14:17:50;3.30;;;3.00;;
61702;SDS011;47622;47.726;3.298;2023-06-14T14:20:16;6.47;;;3.47;;
61702;SDS011;47622;47.726;3.298;2023-06-14T14:22:42;7.65;;;3.28;;
61702;SDS011;47622;47.726;3.298;2023-06-14T14:25:08;4.95;;;3.15;;
61702;SDS011;47622;47.726;3.298;2023-06-14T14:27:34;5.78;;;3.28;;
61702;SDS011;47622;47.726;3.298;2023-06-14T14:30:00;5.97;;;3.08;;
61702;SDS011;47622;47.726;3.298;2023-06-14T14:32:26;3.83;;;3.10;;
61702;SDS011;47622;47.726;3.298;2023-06-14T14:34:51;7.25;;;3.38;;
61702;SDS011;47622;47.726;3.298;2023-06-14T14:37:18;6.13;;;3.45;;
61702;SDS011;47622;47.726;3.298;2023-06-14T14:39:44;9.50;;;3.38;;
61702;SDS011;47622;47.726;3.298;2023-06-14T14:42:10;4.15;;;2.88;;
61702;SDS011;47622;47.726;3.298;2023-06-14T14:44:37;3.95;;;3.42;;
61702;SDS011;47622;47.726;3.298;2023-06-14T14:47:03;5.35;;;3.13;;
61702;SDS011;47622;47.726;3.298;2023-06-14T14:49:30;4.63;;;3.30;;
61702;SDS011;47622;47.726;3.298;2023-06-14T14:51:56;4.70;;;3.00;;
61702;SDS011;47622;47.726;3.298;2023-06-14T14:54:22;7.47;;;3.58;;
61702;SDS011;47622;47.726;3.298;2023-06-14T14:56:48;7.75;;;3.35;;
61702;SDS011;47622;47.726;3.298;2023-06-14T14:59:14;7.18;;;3.38;;
61702;SDS011;47622;47.726;3.298;2023-06-14T15:01:39;4.90;;;3.08;;
61702;SDS011;47622;47.726;3.298;2023-06-14T15:04:05;4.32;;;3.20;;
61702;SDS011;47622;47.726;3.298;2023-06-14T15:06:31;3.75;;;3.13;;
61702;SDS011;47622;47.726;3.298;2023-06-14T15:08:56;4.10;;;2.92;;
61702;SDS011;47622;47.726;3.298;2023-06-14T15:11:23;5.47;;;3.17;;
61702;SDS011;47622;47.726;3.298;2023-06-14T15:13:49;5.45;;;3.17;;
61702;SDS011;47622;47.726;3.298;2023-06-14T15:16:15;4.57;;;3.15;;
61702;SDS011;47622;47.726;3.298;2023-06-14T15:18:42;4.65;;;3.22;;
61702;SDS011;47622;47.726;3.298;2023-06-14T15:21:08;5.80;;;3.30;;
61702;SDS011;47622;47.726;3.298;2023-06-14T15:23:34;6.13;;;3.45;;
61702;SDS011;47622;47.726;3.298;2023-06-14T15:26:00;3.70;;;2.92;;
61702;SDS011;47622;47.726;3.298;2023-06-14T15:28:25;4.60;;;3.67;;
61702;SDS011;47622;47.726;3.298;2023-06-14T15:30:54;3.72;;;3.30;;
61702;SDS011;47622;47.726;3.298;2023-06-14T15:33:20;6.50;;;3.20;;
61702;SDS011;47622;47.726;3.298;2023-06-14T15:35:46;3.47;;;2.90;;
61702;SDS011;47622;47.726;3.298;2023-06-14T15:38:12;5.00;;;3.22;;